createdAt,value
2022-09-27T00:01:15.438Z,8.80
2022-09-27T00:03:42.546Z,8.80
2022-09-27T00:06:13.396Z,8.80
2022-09-27T00:08:40.646Z,8.80
2022-09-27T00:11:13.822Z,8.80
2022-09-27T00:13:41.191Z,8.70
2022-09-27T00:16:09.730Z,8.70
2022-09-27T00:18:36.758Z,8.70
2022-09-27T00:21:12.192Z,8.70
2022-09-27T00:23:40.202Z,8.70
2022-09-27T00:26:08.431Z,8.70
2022-09-27T00:28:35.551Z,8.70
2022-09-27T00:31:03.695Z,8.70
2022-09-27T00:33:30.950Z,8.70
2022-09-27T00:36:05.561Z,8.70
2022-09-27T00:38:32.835Z,8.70
2022-09-27T00:40:59.883Z,8.60
2022-09-27T00:43:26.982Z,8.60
2022-09-27T00:45:58.122Z,8.50
2022-09-27T00:48:28.723Z,8.50
2022-09-27T00:51:00.927Z,8.50
2022-09-27T00:53:35.631Z,8.50
2022-09-27T00:56:09.808Z,8.50
2022-09-27T00:58:43.322Z,8.50
2022-09-27T01:01:10.838Z,8.50
2022-09-27T01:03:58.532Z,8.50
2022-09-27T01:06:25.536Z,8.50
2022-09-27T01:08:52.960Z,8.40
2022-09-27T01:11:22.936Z,8.40
2022-09-27T01:13:56.599Z,8.40
2022-09-27T01:16:54.665Z,8.40
2022-09-27T01:19:24.337Z,8.30
2022-09-27T01:22:15.399Z,8.40
2022-09-27T01:25:05.032Z,8.30
2022-09-27T01:27:38.234Z,8.30
2022-09-27T01:30:26.905Z,8.30
2022-09-27T01:33:15.309Z,8.30
2022-09-27T01:36:16.413Z,8.30
2022-09-27T01:38:48.236Z,8.20
2022-09-27T01:41:33.716Z,8.10
2022-09-27T01:44:22.623Z,8.10
2022-09-27T01:46:55.276Z,8.20
2022-09-27T01:49:49.601Z,8.10
2022-09-27T01:52:21.019Z,8.10
2022-09-27T01:54:53.113Z,8.10
2022-09-27T01:57:26.951Z,8.10
2022-09-27T01:59:59.808Z,8.00
2022-09-27T02:02:29.695Z,8.00
2022-09-27T02:05:00.343Z,8.00
2022-09-27T02:07:37.958Z,8.00
2022-09-27T02:10:17.023Z,8.00
2022-09-27T02:12:52.641Z,7.90
2022-09-27T02:15:19.945Z,7.90
2022-09-27T02:17:59.291Z,7.90
2022-09-27T02:20:46.477Z,7.90
2022-09-27T02:23:19.585Z,7.90
2022-09-27T02:25:59.077Z,7.90
2022-09-27T02:28:39.193Z,7.90
2022-09-27T02:31:06.507Z,7.90
2022-09-27T02:33:56.537Z,7.90
2022-09-27T02:36:23.983Z,7.90
2022-09-27T02:38:51.432Z,7.90
2022-09-27T02:41:21.472Z,8.00
2022-09-27T02:43:52.749Z,7.90
2022-09-27T02:46:34.962Z,8.00
2022-09-27T02:49:04.913Z,8.00
2022-09-27T02:51:48.129Z,8.00
2022-09-27T02:54:29.897Z,8.00
2022-09-27T02:57:23.176Z,8.00
2022-09-27T03:00:12.421Z,7.90
2022-09-27T03:02:39.398Z,7.90
2022-09-27T03:05:10.234Z,7.80
2022-09-27T03:07:38.828Z,7.80
2022-09-27T03:10:06.834Z,7.80
2022-09-27T03:12:34.312Z,7.80
2022-09-27T03:15:01.502Z,7.80
2022-09-27T03:17:28.515Z,7.80
2022-09-27T03:19:55.579Z,7.80
2022-09-27T03:22:22.627Z,7.70
2022-09-27T03:24:49.624Z,7.70
2022-09-27T03:27:16.580Z,7.70
2022-09-27T03:29:43.610Z,7.70
2022-09-27T03:32:10.924Z,7.60
2022-09-27T03:34:38.343Z,7.60
2022-09-27T03:37:05.410Z,7.60
2022-09-27T03:39:33.394Z,7.60
2022-09-27T03:42:00.661Z,7.60
2022-09-27T03:44:27.788Z,7.50
2022-09-27T03:46:54.904Z,7.50
2022-09-27T03:49:21.864Z,7.40
2022-09-27T03:51:48.919Z,7.40
2022-09-27T03:54:15.996Z,7.30
2022-09-27T03:56:43.222Z,7.30
2022-09-27T03:59:10.284Z,7.30
2022-09-27T04:01:39.118Z,7.20
2022-09-27T04:04:10.880Z,7.20
2022-09-27T04:06:38.232Z,7.10
2022-09-27T04:09:05.299Z,7.10
2022-09-27T04:11:32.345Z,7.10
2022-09-27T04:13:59.620Z,7.10
2022-09-27T04:16:27.841Z,7.10
2022-09-27T04:19:04.788Z,7.20
2022-09-27T04:21:34.878Z,7.10
2022-09-27T04:24:02.934Z,7.10
2022-09-27T04:26:29.973Z,7.10
2022-09-27T04:28:57.042Z,7.10
2022-09-27T04:31:24.246Z,7.10
2022-09-27T04:33:51.448Z,7.10
2022-09-27T04:36:28.712Z,7.10
2022-09-27T04:38:57.248Z,7.10
2022-09-27T04:41:25.757Z,7.10
2022-09-27T04:43:58.747Z,7.10
2022-09-27T04:46:26.625Z,7.10
2022-09-27T04:48:53.711Z,7.20
2022-09-27T04:51:21.256Z,7.20
2022-09-27T04:53:48.290Z,7.20
2022-09-27T04:56:16.134Z,7.20
2022-09-27T04:58:43.290Z,7.20
2022-09-27T05:01:10.701Z,7.30
2022-09-27T05:03:38.130Z,7.30
2022-09-27T05:06:05.364Z,7.30
2022-09-27T05:08:32.454Z,7.40
2022-09-27T05:10:59.532Z,7.40
2022-09-27T05:13:26.576Z,7.50
2022-09-27T05:15:53.673Z,7.50
2022-09-27T05:18:20.743Z,7.60
2022-09-27T05:20:48.033Z,7.60
2022-09-27T05:23:15.571Z,7.70
2022-09-27T05:25:43.261Z,7.80
2022-09-27T05:28:10.656Z,7.80
2022-09-27T05:30:37.919Z,7.80
2022-09-27T05:33:05.314Z,7.90
2022-09-27T05:35:34.094Z,8.00
2022-09-27T05:38:01.498Z,8.10
2022-09-27T05:40:44.895Z,8.20
2022-09-27T05:43:12.345Z,8.30
2022-09-27T05:45:39.588Z,8.40
2022-09-27T05:48:06.885Z,8.50
2022-09-27T05:50:33.999Z,8.60
2022-09-27T05:53:00.999Z,8.70
2022-09-27T05:55:28.024Z,8.80
2022-09-27T05:58:06.363Z,9.00
2022-09-27T06:00:34.963Z,9.20
2022-09-27T06:03:04.418Z,9.40
2022-09-27T06:05:35.710Z,9.70
2022-09-27T06:08:10.395Z,10.10
2022-09-27T06:10:38.491Z,10.40
2022-09-27T06:13:12.310Z,10.80
2022-09-27T06:15:41.742Z,11.10
2022-09-27T06:18:11.579Z,11.50
2022-09-27T06:20:39.832Z,11.80
2022-09-27T06:23:14.167Z,12.30
2022-09-27T06:25:42.154Z,12.70
2022-09-27T06:28:12.131Z,13.20
2022-09-27T06:30:41.674Z,13.60
2022-09-27T06:33:11.768Z,14.00
2022-09-27T06:35:39.004Z,14.40
2022-09-27T06:38:09.359Z,14.60
2022-09-27T06:40:37.078Z,14.80
2022-09-27T06:43:09.329Z,14.90
2022-09-27T06:45:37.259Z,14.80
2022-09-27T06:48:05.509Z,14.80
2022-09-27T06:50:35.563Z,14.90
2022-09-27T06:53:03.171Z,15.10
2022-09-27T06:55:30.163Z,15.40
2022-09-27T06:58:16.988Z,15.60
2022-09-27T07:00:44.170Z,15.80
2022-09-27T07:03:12.006Z,15.70
2022-09-27T07:05:39.191Z,15.70
2022-09-27T07:08:06.418Z,15.70
2022-09-27T07:10:37.740Z,15.80
2022-09-27T07:13:09.476Z,15.80
2022-09-27T07:15:37.952Z,15.80
2022-09-27T07:18:06.675Z,15.70
2022-09-27T07:20:37.326Z,15.70
2022-09-27T07:23:05.758Z,15.90
2022-09-27T07:25:33.549Z,16.10
2022-09-27T07:28:10.637Z,16.10
2022-09-27T07:30:37.767Z,16.20
2022-09-27T07:33:06.468Z,16.20
2022-09-27T07:35:33.711Z,16.10
2022-09-27T07:38:00.788Z,16.10
2022-09-27T07:40:27.873Z,15.80
2022-09-27T07:42:59.411Z,15.50
2022-09-27T07:45:26.926Z,15.30
2022-09-27T07:47:54.007Z,15.20
2022-09-27T07:50:21.156Z,15.10
2022-09-27T07:52:52.788Z,15.10
2022-09-27T07:55:20.259Z,15.20
2022-09-27T07:57:47.216Z,15.30
2022-09-27T08:00:16.538Z,15.40
2022-09-27T08:02:44.977Z,15.50
2022-09-27T08:05:13.897Z,15.50
2022-09-27T08:07:41.252Z,15.50
2022-09-27T08:10:09.826Z,15.50
2022-09-27T08:12:36.994Z,15.50
2022-09-27T08:15:05.115Z,15.60
2022-09-27T08:17:33.142Z,15.70
2022-09-27T08:20:04.096Z,15.90
2022-09-27T08:22:30.970Z,16.00
2022-09-27T08:24:57.983Z,16.10
2022-09-27T08:27:25.019Z,16.00
2022-09-27T08:29:52.204Z,15.90
2022-09-27T08:32:27.837Z,15.90
2022-09-27T08:34:54.814Z,16.00
2022-09-27T08:37:21.780Z,16.10
2022-09-27T08:39:48.837Z,16.00
2022-09-27T08:42:45.782Z,15.80
2022-09-27T08:45:21.008Z,15.60
2022-09-27T08:47:58.995Z,15.70
2022-09-27T08:50:29.994Z,15.70
2022-09-27T08:53:00.067Z,15.80
2022-09-27T08:55:41.950Z,15.80
2022-09-27T08:58:28.344Z,15.90
2022-09-27T09:00:58.828Z,15.80
2022-09-27T09:03:29.207Z,15.90
2022-09-27T09:06:14.385Z,15.90
2022-09-27T09:09:11.524Z,16.00
2022-09-27T09:12:24.552Z,16.00
2022-09-27T09:15:19.248Z,15.90
2022-09-27T09:18:01.373Z,15.80
2022-09-27T09:20:43.581Z,15.70
2022-09-27T09:23:45.785Z,15.60
2022-09-27T09:26:43.655Z,15.60
2022-09-27T09:29:28.457Z,15.50
2022-09-27T09:32:08.009Z,15.60
2022-09-27T09:34:48.428Z,15.50
2022-09-27T09:37:24.840Z,15.50
2022-09-27T09:40:04.242Z,15.60
2022-09-27T09:42:43.204Z,15.50
2022-09-27T09:45:39.189Z,15.50
2022-09-27T09:48:18.611Z,15.50
2022-09-27T09:50:51.311Z,15.40
2022-09-27T09:53:33.482Z,15.40
2022-09-27T09:56:05.152Z,15.40
2022-09-27T09:58:43.538Z,15.50
2022-09-27T10:01:23.505Z,15.50
2022-09-27T10:03:50.847Z,15.50
2022-09-27T10:06:19.456Z,15.40
2022-09-27T10:08:47.551Z,15.30
2022-09-27T10:11:27.734Z,15.20
2022-09-27T10:13:57.926Z,15.20
2022-09-27T10:16:28.972Z,15.10
2022-09-27T10:19:02.918Z,15.00
2022-09-27T10:21:30.856Z,15.00
2022-09-27T10:24:19.730Z,15.10
2022-09-27T10:26:48.963Z,15.10
2022-09-27T10:29:37.027Z,15.00
2022-09-27T10:32:18.221Z,15.00
2022-09-27T10:34:45.323Z,15.00
2022-09-27T10:37:12.318Z,15.00
2022-09-27T10:39:41.655Z,15.00
2022-09-27T10:42:36.497Z,15.00
2022-09-27T10:45:25.553Z,15.10
2022-09-27T10:47:52.878Z,15.10
2022-09-27T10:50:49.558Z,15.00
2022-09-27T10:53:16.381Z,15.10
2022-09-27T10:55:46.974Z,15.20
2022-09-27T10:58:45.594Z,15.20
2022-09-27T11:01:12.707Z,15.20
2022-09-27T11:03:52.907Z,15.20
2022-09-27T11:06:23.789Z,15.30
2022-09-27T11:08:54.580Z,15.30
2022-09-27T11:11:26.024Z,15.40
2022-09-27T11:14:04.714Z,15.30
2022-09-27T11:16:31.699Z,15.30
2022-09-27T11:19:24.798Z,15.30
2022-09-27T11:22:06.311Z,15.30
2022-09-27T11:24:55.146Z,15.20
2022-09-27T11:27:38.986Z,15.20
2022-09-27T11:30:06.081Z,15.20
2022-09-27T11:32:51.917Z,15.20
2022-09-27T11:35:26.553Z,15.30
2022-09-27T11:38:29.572Z,15.30
2022-09-27T11:41:38.831Z,15.50
2022-09-27T11:44:37.881Z,15.70
2022-09-27T11:47:18.668Z,15.80
2022-09-27T11:49:45.648Z,16.00
2022-09-27T11:52:36.875Z,16.00
2022-09-27T11:55:31.134Z,16.10
2022-09-27T11:58:20.293Z,16.20
2022-09-27T12:01:22.468Z,16.10
2022-09-27T12:04:15.759Z,16.00
2022-09-27T12:06:43.023Z,16.00
2022-09-27T12:09:16.148Z,16.00
2022-09-27T12:11:57.478Z,16.10
2022-09-27T12:14:44.581Z,16.20
2022-09-27T12:17:41.119Z,16.20
2022-09-27T12:20:17.251Z,16.20
2022-09-27T12:23:00.158Z,16.30
2022-09-27T12:25:31.729Z,16.40
2022-09-27T12:28:12.271Z,16.40
2022-09-27T12:30:44.965Z,16.50
2022-09-27T12:33:26.486Z,16.50
2022-09-27T12:35:57.779Z,16.40
2022-09-27T12:38:39.853Z,16.40
2022-09-27T12:41:10.143Z,16.30
2022-09-27T12:43:47.376Z,16.30
2022-09-27T12:46:37.735Z,16.30
2022-09-27T12:49:24.095Z,16.30
2022-09-27T12:52:08.846Z,16.30
2022-09-27T12:54:44.509Z,16.20
2022-09-27T12:57:23.636Z,16.10
2022-09-27T12:59:50.524Z,16.20
2022-09-27T13:02:41.531Z,16.20
2022-09-27T13:05:56.135Z,16.30
2022-09-27T13:08:53.914Z,16.20
2022-09-27T13:11:29.021Z,16.30
2022-09-27T13:13:58.404Z,16.20
2022-09-27T13:16:25.994Z,16.20
2022-09-27T13:19:03.751Z,16.20
2022-09-27T13:21:54.519Z,16.20
2022-09-27T13:24:39.507Z,16.20
2022-09-27T13:27:36.195Z,16.30
2022-09-27T13:30:12.045Z,16.30
2022-09-27T13:32:41.044Z,16.30
2022-09-27T13:35:25.233Z,16.30
2022-09-27T13:37:55.415Z,16.40
2022-09-27T13:40:37.509Z,16.40
2022-09-27T13:43:17.897Z,16.30
2022-09-27T13:46:22.676Z,16.30
2022-09-27T13:49:20.864Z,16.30
2022-09-27T13:51:53.502Z,16.40
2022-09-27T13:54:51.133Z,16.40
2022-09-27T13:57:56.904Z,16.50
2022-09-27T14:00:27.547Z,16.50
2022-09-27T14:03:01.139Z,16.60
2022-09-27T14:05:36.576Z,16.60
2022-09-27T14:08:05.465Z,16.60
2022-09-27T14:10:33.437Z,16.70
2022-09-27T14:13:04.584Z,16.80
2022-09-27T14:15:32.846Z,16.80
2022-09-27T14:18:00.012Z,16.80
2022-09-27T14:20:42.308Z,16.90
2022-09-27T14:23:24.731Z,16.80
2022-09-27T14:25:54.150Z,16.80
2022-09-27T14:28:27.259Z,16.70
2022-09-27T14:31:26.565Z,16.60
2022-09-27T14:34:06.082Z,16.50
2022-09-27T14:36:53.712Z,16.40
2022-09-27T14:39:35.753Z,16.40
2022-09-27T14:42:05.901Z,16.30
2022-09-27T14:44:33.525Z,16.30
2022-09-27T14:47:26.265Z,16.20
2022-09-27T14:49:54.699Z,16.10
2022-09-27T14:52:31.416Z,15.90
2022-09-27T14:55:06.448Z,15.80
2022-09-27T14:57:36.013Z,15.70
2022-09-27T15:00:15.279Z,15.50
2022-09-27T15:02:44.151Z,15.40
2022-09-27T15:05:19.324Z,15.20
2022-09-27T15:07:47.744Z,15.10
2022-09-27T15:10:20.535Z,15.00
2022-09-27T15:12:50.945Z,14.90
2022-09-27T15:15:25.393Z,14.90
2022-09-27T15:17:53.848Z,14.80
2022-09-27T15:20:35.494Z,14.70
2022-09-27T15:23:06.090Z,14.60
2022-09-27T15:25:36.984Z,14.60
2022-09-27T15:28:12.760Z,14.50
2022-09-27T15:30:51.152Z,14.40
2022-09-27T15:33:36.830Z,14.30
2022-09-27T15:36:06.909Z,14.20
2022-09-27T15:38:46.308Z,14.10
2022-09-27T15:41:20.384Z,14.00
2022-09-27T15:43:52.712Z,13.90
2022-09-27T15:46:22.903Z,13.90
2022-09-27T15:49:35.681Z,13.80
2022-09-27T15:52:05.275Z,13.80
2022-09-27T15:54:34.787Z,13.70
2022-09-27T15:57:05.623Z,13.60
2022-09-27T15:59:36.198Z,13.50
2022-09-27T16:02:12.303Z,13.40
2022-09-27T16:04:39.239Z,13.30
2022-09-27T16:07:09.125Z,13.20
2022-09-27T16:09:36.138Z,13.10
2022-09-27T16:12:03.106Z,13.00
2022-09-27T16:14:30.088Z,12.80
2022-09-27T16:17:00.638Z,12.80
2022-09-27T16:19:27.769Z,12.80
2022-09-27T16:21:54.710Z,12.80
2022-09-27T16:24:21.715Z,12.70
2022-09-27T16:26:48.668Z,12.60
2022-09-27T16:29:16.499Z,12.50
2022-09-27T16:31:44.416Z,12.40
2022-09-27T16:34:12.694Z,12.30
2022-09-27T16:36:40.178Z,12.30
2022-09-27T16:39:10.926Z,12.30
2022-09-27T16:41:38.203Z,12.20
2022-09-27T16:44:09.810Z,12.10
2022-09-27T16:46:40.581Z,12.00
2022-09-27T16:49:27.634Z,12.00
2022-09-27T16:52:00.636Z,11.90
2022-09-27T16:54:31.646Z,11.90
2022-09-27T16:56:59.125Z,11.90
2022-09-27T16:59:26.719Z,11.90
2022-09-27T17:01:58.058Z,11.80
2022-09-27T17:04:26.482Z,11.80
2022-09-27T17:06:54.081Z,11.80
2022-09-27T17:09:24.712Z,11.80
2022-09-27T17:11:51.692Z,11.70
2022-09-27T17:14:19.141Z,11.60
2022-09-27T17:16:47.859Z,11.60
2022-09-27T17:19:15.772Z,11.60
2022-09-27T17:21:43.680Z,11.60
2022-09-27T17:24:10.935Z,11.60
2022-09-27T17:26:38.269Z,11.60
2022-09-27T17:29:05.273Z,11.60
2022-09-27T17:31:34.936Z,11.60
2022-09-27T17:34:02.682Z,11.60
2022-09-27T17:36:34.622Z,11.60
2022-09-27T17:39:02.180Z,11.50
2022-09-27T17:41:29.982Z,11.60
2022-09-27T17:43:59.371Z,11.50
2022-09-27T17:46:31.398Z,11.40
2022-09-27T17:49:17.476Z,11.40
2022-09-27T17:51:47.827Z,11.40
2022-09-27T17:54:16.850Z,11.40
2022-09-27T17:56:44.316Z,11.40
2022-09-27T17:59:12.063Z,11.40
2022-09-27T18:01:39.680Z,11.40
2022-09-27T18:04:11.412Z,11.30
2022-09-27T18:06:42.764Z,11.30
2022-09-27T18:09:11.070Z,11.30
2022-09-27T18:11:39.652Z,11.20
2022-09-27T18:14:07.155Z,11.10
2022-09-27T18:16:39.267Z,11.00
2022-09-27T18:19:08.130Z,11.00
2022-09-27T18:21:35.188Z,11.00
2022-09-27T18:24:06.472Z,10.90
2022-09-27T18:26:39.280Z,11.00
2022-09-27T18:29:18.458Z,11.00
2022-09-27T18:31:48.655Z,10.90
2022-09-27T18:34:17.970Z,10.90
2022-09-27T18:36:45.424Z,10.90
2022-09-27T18:39:15.923Z,10.90
2022-09-27T18:41:43.151Z,10.90
2022-09-27T18:44:12.625Z,10.80
2022-09-27T18:46:39.789Z,10.80
2022-09-27T18:49:12.002Z,10.80
2022-09-27T18:51:45.011Z,10.70
2022-09-27T18:54:20.338Z,10.70
2022-09-27T18:56:50.325Z,10.60
2022-09-27T18:59:17.615Z,10.60
2022-09-27T19:01:45.973Z,10.70
2022-09-27T19:04:19.225Z,10.60
2022-09-27T19:06:48.720Z,10.60
2022-09-27T19:09:15.688Z,10.60
2022-09-27T19:11:42.709Z,10.50
2022-09-27T19:14:18.108Z,10.50
2022-09-27T19:16:47.336Z,10.50
2022-09-27T19:19:16.042Z,10.40
2022-09-27T19:21:43.405Z,10.40
2022-09-27T19:24:10.399Z,10.40
2022-09-27T19:26:45.962Z,10.40
2022-09-27T19:29:14.593Z,10.30
2022-09-27T19:31:42.289Z,10.30
2022-09-27T19:34:09.366Z,10.30
2022-09-27T19:36:36.324Z,10.30
2022-09-27T19:39:03.792Z,10.20
2022-09-27T19:41:30.739Z,10.20
2022-09-27T19:43:57.780Z,10.20
2022-09-27T19:46:26.005Z,10.20
2022-09-27T19:48:53.861Z,10.20
2022-09-27T19:51:22.836Z,10.10
2022-09-27T19:53:50.650Z,10.20
2022-09-27T19:56:18.126Z,10.20
2022-09-27T19:58:45.609Z,10.20
2022-09-27T20:01:23.081Z,10.20
2022-09-27T20:03:52.006Z,10.20
2022-09-27T20:06:20.700Z,10.20
2022-09-27T20:08:51.023Z,10.20
2022-09-27T20:11:23.335Z,10.20
2022-09-27T20:13:52.986Z,10.20
2022-09-27T20:16:25.167Z,10.20
2022-09-27T20:18:54.128Z,10.30
2022-09-27T20:21:25.200Z,10.20
2022-09-27T20:23:54.413Z,10.20
2022-09-27T20:26:24.345Z,10.20
2022-09-27T20:28:53.507Z,10.20
2022-09-27T20:31:22.986Z,10.20
2022-09-27T20:33:51.080Z,10.10
2022-09-27T20:36:26.993Z,10.10
2022-09-27T20:39:01.169Z,10.10
2022-09-27T20:41:31.720Z,10.10
2022-09-27T20:44:03.558Z,10.10
2022-09-27T20:46:31.426Z,10.10
2022-09-27T20:49:06.074Z,10.10
2022-09-27T20:51:34.438Z,10.10
2022-09-27T20:54:02.883Z,10.10
2022-09-27T20:56:32.968Z,10.10
2022-09-27T20:59:05.479Z,10.10
2022-09-27T21:01:33.348Z,10.10
2022-09-27T21:04:03.202Z,10.00
2022-09-27T21:06:31.677Z,10.00
2022-09-27T21:09:00.148Z,10.00
2022-09-27T21:11:27.723Z,10.00
2022-09-27T21:13:54.816Z,9.90
2022-09-27T21:16:24.585Z,9.80
2022-09-27T21:18:54.387Z,9.80
2022-09-27T21:21:23.258Z,9.80
2022-09-27T21:23:58.722Z,9.80
2022-09-27T21:26:28.005Z,9.70
2022-09-27T21:28:57.160Z,9.70
2022-09-27T21:31:28.544Z,9.60
2022-09-27T21:33:59.221Z,9.50
2022-09-27T21:36:31.701Z,9.40
2022-09-27T21:38:59.012Z,9.40
2022-09-27T21:41:26.993Z,9.40
2022-09-27T21:43:54.477Z,9.40
2022-09-27T21:46:27.588Z,9.40
2022-09-27T21:48:59.508Z,9.50
2022-09-27T21:51:29.502Z,9.50
2022-09-27T21:53:59.343Z,9.50
2022-09-27T21:56:28.518Z,9.50
2022-09-27T21:58:55.586Z,9.50
2022-09-27T22:01:25.218Z,9.50
2022-09-27T22:03:54.296Z,9.40
2022-09-27T22:06:23.656Z,9.40
2022-09-27T22:08:51.752Z,9.40
2022-09-27T22:11:22.284Z,9.40
2022-09-27T22:13:49.338Z,9.30
2022-09-27T22:16:18.315Z,9.30
2022-09-27T22:18:47.182Z,9.30
2022-09-27T22:21:16.917Z,9.30
2022-09-27T22:23:45.601Z,9.30
2022-09-27T22:26:18.031Z,9.20
2022-09-27T22:28:46.124Z,9.20
2022-09-27T22:31:19.032Z,9.20
2022-09-27T22:33:58.428Z,9.20
2022-09-27T22:36:26.486Z,9.30
2022-09-27T22:38:53.851Z,9.20
2022-09-27T22:41:21.623Z,9.20
2022-09-27T22:43:48.620Z,9.20
2022-09-27T22:46:15.971Z,9.10
2022-09-27T22:48:43.344Z,9.10
2022-09-27T22:51:10.564Z,9.10
2022-09-27T22:53:37.869Z,9.10
2022-09-27T22:56:08.505Z,9.10
2022-09-27T22:58:36.781Z,9.00
2022-09-27T23:01:13.584Z,9.00
2022-09-27T23:03:40.726Z,9.00
2022-09-27T23:06:07.994Z,9.10
2022-09-27T23:08:38.719Z,9.10
2022-09-27T23:11:11.322Z,9.10
2022-09-27T23:13:41.427Z,9.00
2022-09-27T23:16:16.684Z,9.00
2022-09-27T23:18:44.566Z,9.00
2022-09-27T23:21:13.707Z,9.00
2022-09-27T23:23:44.979Z,9.00
2022-09-27T23:26:16.613Z,9.00
2022-09-27T23:28:44.006Z,9.00
2022-09-27T23:31:14.045Z,9.10
2022-09-27T23:33:47.525Z,9.00
2022-09-27T23:36:17.263Z,9.10
2022-09-27T23:38:45.956Z,9.00
2022-09-27T23:41:14.360Z,9.00
2022-09-27T23:43:41.607Z,8.90
2022-09-27T23:46:09.826Z,8.90
2022-09-27T23:48:37.729Z,8.90
2022-09-27T23:51:07.279Z,8.90
2022-09-27T23:53:34.504Z,8.80
2022-09-27T23:56:04.704Z,8.70
2022-09-27T23:58:39.604Z,8.70
